sensor_id;sensor_type;location;lat;lon;timestamp;pressure;altitude;pressure_sealevel;temperature;humidity
75585;BME280;64162;53.508;10.476;2023-09-12T00:02:01;100717.59;;;24.25;60.56
75585;BME280;64162;53.508;10.476;2023-09-12T00:04:28;100732.09;;;23.98;61.54
75585;BME280;64162;53.508;10.476;2023-09-12T00:06:54;100737.06;;;23.75;62.52
75585;BME280;64162;53.508;10.476;2023-09-12T00:09:21;100737.69;;;24.03;61.47
75585;BME280;64162;53.508;10.476;2023-09-12T00:11:48;100736.22;;;23.94;61.76
75585;BME280;64162;53.508;10.476;2023-09-12T00:14:15;100742.03;;;23.91;61.85
75585;BME280;64162;53.508;10.476;2023-09-12T00:16:43;100743.69;;;23.79;62.22
75585;BME280;64162;53.508;10.476;2023-09-12T00:19:09;100748.03;;;23.86;61.84
75585;BME280;64162;53.508;10.476;2023-09-12T00:21:36;100746.19;;;23.60;62.78
75585;BME280;64162;53.508;10.476;2023-09-12T00:24:03;100735.09;;;23.16;63.71
75585;BME280;64162;53.508;10.476;2023-09-12T00:26:29;100741.63;;;23.61;62.60
75585;BME280;64162;53.508;10.476;2023-09-12T00:28:58;100752.59;;;23.66;62.23
75585;BME280;64162;53.508;10.476;2023-09-12T00:31:24;100756.22;;;23.25;63.23
75585;BME280;64162;53.508;10.476;2023-09-12T00:33:51;100752.56;;;24.19;60.08
75585;BME280;64162;53.508;10.476;2023-09-12T00:36:17;100753.22;;;23.94;58.86
75585;BME280;64162;53.508;10.476;2023-09-12T00:38:44;100745.75;;;24.10;60.38
75585;BME280;64162;53.508;10.476;2023-09-12T00:41:10;100743.97;;;24.68;58.66
75585;BME280;64162;53.508;10.476;2023-09-12T00:43:37;100741.72;;;24.58;58.97
75585;BME280;64162;53.508;10.476;2023-09-12T00:46:04;100744.03;;;24.42;59.00
75585;BME280;64162;53.508;10.476;2023-09-12T00:48:30;100743.78;;;24.56;57.33
75585;BME280;64162;53.508;10.476;2023-09-12T00:50:58;100758.78;;;24.19;59.64
75585;BME280;64162;53.508;10.476;2023-09-12T00:53:25;100749.28;;;23.77;61.54
75585;BME280;64162;53.508;10.476;2023-09-12T00:55:55;100751.78;;;22.91;63.99
75585;BME280;64162;53.508;10.476;2023-09-12T00:58:23;100735.22;;;22.81;64.55
75585;BME280;64162;53.508;10.476;2023-09-12T01:00:51;100740.84;;;22.99;64.88
75585;BME280;64162;53.508;10.476;2023-09-12T01:03:17;100752.66;;;23.12;64.37
75585;BME280;64162;53.508;10.476;2023-09-12T01:05:44;100745.94;;;23.68;62.32
75585;BME280;64162;53.508;10.476;2023-09-12T01:08:12;100741.34;;;22.75;65.71
75585;BME280;64162;53.508;10.476;2023-09-12T01:10:39;100742.78;;;22.30;67.01
75585;BME280;64162;53.508;10.476;2023-09-12T01:13:06;100735.34;;;22.73;65.91
75585;BME280;64162;53.508;10.476;2023-09-12T01:15:33;100731.63;;;22.74;66.55
75585;BME280;64162;53.508;10.476;2023-09-12T01:17:59;100738.03;;;23.34;64.11
75585;BME280;64162;53.508;10.476;2023-09-12T01:20:31;100736.34;;;23.07;64.71
75585;BME280;64162;53.508;10.476;2023-09-12T01:26:01;100744.22;;;23.21;64.21
75585;BME280;64162;53.508;10.476;2023-09-12T01:28:34;100742.69;;;22.92;65.39
75585;BME280;64162;53.508;10.476;2023-09-12T01:31:02;100739.06;;;23.33;64.10
75585;BME280;64162;53.508;10.476;2023-09-12T01:33:29;100751.72;;;23.46;63.70
75585;BME280;64162;53.508;10.476;2023-09-12T01:35:56;100752.00;;;22.55;66.39
75585;BME280;64162;53.508;10.476;2023-09-12T01:38:22;100744.03;;;22.75;66.29
75585;BME280;64162;53.508;10.476;2023-09-12T01:40:51;100732.94;;;23.59;63.45
75585;BME280;64162;53.508;10.476;2023-09-12T01:43:21;100728.06;;;23.15;64.94
75585;BME280;64162;53.508;10.476;2023-09-12T01:45:50;100713.88;;;23.93;62.42
75585;BME280;64162;53.508;10.476;2023-09-12T01:48:20;100706.38;;;23.29;63.79
75585;BME280;64162;53.508;10.476;2023-09-12T01:50:48;100710.31;;;22.66;66.61
75585;BME280;64162;53.508;10.476;2023-09-12T01:53:16;100711.59;;;23.90;61.90
75585;BME280;64162;53.508;10.476;2023-09-12T01:55:43;100692.53;;;22.65;66.94
75585;BME280;64162;53.508;10.476;2023-09-12T01:58:12;100693.22;;;23.67;62.62
75585;BME280;64162;53.508;10.476;2023-09-12T02:00:39;100689.03;;;23.45;63.25
75585;BME280;64162;53.508;10.476;2023-09-12T02:03:06;100680.59;;;23.55;62.74
75585;BME280;64162;53.508;10.476;2023-09-12T02:05:33;100675.13;;;24.14;60.34
75585;BME280;64162;53.508;10.476;2023-09-12T02:07:59;100668.34;;;23.72;62.99
75585;BME280;64162;53.508;10.476;2023-09-12T02:10:31;100670.66;;;23.62;63.19
75585;BME280;64162;53.508;10.476;2023-09-12T02:12:58;100671.66;;;23.41;64.21
75585;BME280;64162;53.508;10.476;2023-09-12T02:15:25;100677.84;;;23.75;63.08
75585;BME280;64162;53.508;10.476;2023-09-12T02:17:51;100677.28;;;23.66;63.31
75585;BME280;64162;53.508;10.476;2023-09-12T02:22:46;100683.88;;;23.77;63.12
75585;BME280;64162;53.508;10.476;2023-09-12T02:25:12;100675.72;;;24.23;61.74
75585;BME280;64162;53.508;10.476;2023-09-12T02:31:51;100695.66;;;23.69;63.47
75585;BME280;64162;53.508;10.476;2023-09-12T02:34:18;100712.84;;;23.88;62.99
75585;BME280;64162;53.508;10.476;2023-09-12T02:36:44;100704.56;;;23.89;62.73
75585;BME280;64162;53.508;10.476;2023-09-12T02:39:11;100717.13;;;23.29;65.08
75585;BME280;64162;53.508;10.476;2023-09-12T02:41:38;100719.19;;;23.08;66.40
75585;BME280;64162;53.508;10.476;2023-09-12T02:44:05;100735.97;;;23.29;65.84
75585;BME280;64162;53.508;10.476;2023-09-12T02:46:32;100748.28;;;22.97;66.30
75585;BME280;64162;53.508;10.476;2023-09-12T02:48:59;100758.00;;;22.92;67.13
75585;BME280;64162;53.508;10.476;2023-09-12T02:51:26;100773.31;;;22.63;68.36
75585;BME280;64162;53.508;10.476;2023-09-12T02:53:52;100764.25;;;23.12;66.29
75585;BME280;64162;53.508;10.476;2023-09-12T02:56:19;100779.94;;;22.67;68.77
75585;BME280;64162;53.508;10.476;2023-09-12T02:58:46;100779.03;;;22.47;68.84
75585;BME280;64162;53.508;10.476;2023-09-12T03:01:20;100769.91;;;22.42;69.34
75585;BME280;64162;53.508;10.476;2023-09-12T03:03:47;100778.25;;;22.60;68.66
75585;BME280;64162;53.508;10.476;2023-09-12T03:06:15;100783.72;;;22.38;69.86
75585;BME280;64162;53.508;10.476;2023-09-12T03:08:43;100774.50;;;22.48;69.42
75585;BME280;64162;53.508;10.476;2023-09-12T03:11:10;100778.34;;;22.11;71.13
75585;BME280;64162;53.508;10.476;2023-09-12T03:13:38;100788.84;;;21.63;72.15
75585;BME280;64162;53.508;10.476;2023-09-12T03:16:12;100788.28;;;21.89;72.05
75585;BME280;64162;53.508;10.476;2023-09-12T03:18:39;100772.75;;;22.33;70.30
75585;BME280;64162;53.508;10.476;2023-09-12T03:21:06;100766.59;;;22.39;70.39
75585;BME280;64162;53.508;10.476;2023-09-12T03:23:33;100757.34;;;22.55;69.57
75585;BME280;64162;53.508;10.476;2023-09-12T03:26:02;100757.78;;;22.93;68.81
75585;BME280;64162;53.508;10.476;2023-09-12T03:28:31;100751.44;;;23.21;67.07
75585;BME280;64162;53.508;10.476;2023-09-12T03:31:09;100758.22;;;22.62;69.31
75585;BME280;64162;53.508;10.476;2023-09-12T03:33:38;100757.81;;;23.00;67.47
75585;BME280;64162;53.508;10.476;2023-09-12T03:36:06;100761.66;;;23.52;65.77
75585;BME280;64162;53.508;10.476;2023-09-12T03:38:34;100775.03;;;23.25;66.80
75585;BME280;64162;53.508;10.476;2023-09-12T03:41:01;100781.19;;;22.99;67.93
75585;BME280;64162;53.508;10.476;2023-09-12T03:43:30;100773.34;;;22.70;69.07
75585;BME280;64162;53.508;10.476;2023-09-12T03:45:56;100778.81;;;23.44;65.84
75585;BME280;64162;53.508;10.476;2023-09-12T03:48:23;100790.59;;;22.48;69.42
75585;BME280;64162;53.508;10.476;2023-09-12T03:50:50;100792.47;;;22.54;69.61
75585;BME280;64162;53.508;10.476;2023-09-12T03:53:17;100783.78;;;22.45;69.90
75585;BME280;64162;53.508;10.476;2023-09-12T03:55:44;100791.97;;;23.06;67.46
75585;BME280;64162;53.508;10.476;2023-09-12T03:58:10;100790.88;;;22.94;68.03
75585;BME280;64162;53.508;10.476;2023-09-12T04:00:37;100781.44;;;22.77;68.74
75585;BME280;64162;53.508;10.476;2023-09-12T04:03:04;100796.19;;;23.42;65.32
75585;BME280;64162;53.508;10.476;2023-09-12T04:05:30;100795.28;;;22.73;68.34
75585;BME280;64162;53.508;10.476;2023-09-12T04:07:57;100794.53;;;22.86;68.59
75585;BME280;64162;53.508;10.476;2023-09-12T04:10:24;100769.66;;;22.78;68.60
75585;BME280;64162;53.508;10.476;2023-09-12T04:12:50;100772.09;;;23.14;67.21
75585;BME280;64162;53.508;10.476;2023-09-12T04:15:17;100763.16;;;22.93;68.16
75585;BME280;64162;53.508;10.476;2023-09-12T04:17:44;100755.31;;;22.98;68.18
75585;BME280;64162;53.508;10.476;2023-09-12T04:20:11;100760.38;;;23.41;66.24
75585;BME280;64162;53.508;10.476;2023-09-12T04:22:44;100766.72;;;22.66;68.91
75585;BME280;64162;53.508;10.476;2023-09-12T04:25:11;100754.56;;;22.77;69.06
75585;BME280;64162;53.508;10.476;2023-09-12T04:27:38;100757.19;;;22.63;68.90
75585;BME280;64162;53.508;10.476;2023-09-12T04:30:05;100744.28;;;22.80;68.83
75585;BME280;64162;53.508;10.476;2023-09-12T04:32:32;100732.16;;;22.56;69.37
75585;BME280;64162;53.508;10.476;2023-09-12T04:34:59;100718.91;;;22.89;68.37
75585;BME280;64162;53.508;10.476;2023-09-12T04:37:25;100713.19;;;23.25;64.33
75585;BME280;64162;53.508;10.476;2023-09-12T04:39:52;100722.50;;;23.10;67.64
75585;BME280;64162;53.508;10.476;2023-09-12T04:42:20;100735.41;;;23.60;65.50
75585;BME280;64162;53.508;10.476;2023-09-12T04:44:48;100725.00;;;23.31;66.42
75585;BME280;64162;53.508;10.476;2023-09-12T04:47:15;100720.03;;;23.34;62.88
75585;BME280;64162;53.508;10.476;2023-09-12T04:49:43;100746.28;;;23.26;66.25
75585;BME280;64162;53.508;10.476;2023-09-12T04:52:10;100739.03;;;22.65;69.28
75585;BME280;64162;53.508;10.476;2023-09-12T04:54:36;100732.88;;;22.78;65.53
75585;BME280;64162;53.508;10.476;2023-09-12T04:57:03;100727.00;;;22.96;68.40
75585;BME280;64162;53.508;10.476;2023-09-12T04:59:30;100744.59;;;23.12;67.52
75585;BME280;64162;53.508;10.476;2023-09-12T05:01:57;100744.28;;;23.48;66.18
75585;BME280;64162;53.508;10.476;2023-09-12T05:04:24;100749.38;;;23.16;64.58
75585;BME280;64162;53.508;10.476;2023-09-12T05:06:50;100765.63;;;23.62;66.28
75585;BME280;64162;53.508;10.476;2023-09-12T05:09:17;100777.03;;;23.64;66.22
75585;BME280;64162;53.508;10.476;2023-09-12T05:11:45;100776.19;;;23.57;66.26
75585;BME280;64162;53.508;10.476;2023-09-12T05:14:11;100785.50;;;23.68;66.24
75585;BME280;64162;53.508;10.476;2023-09-12T05:16:38;100792.22;;;23.31;67.64
75585;BME280;64162;53.508;10.476;2023-09-12T05:19:05;100802.38;;;22.81;69.10
75585;BME280;64162;53.508;10.476;2023-09-12T05:21:32;100818.69;;;21.74;73.15
75585;BME280;64162;53.508;10.476;2023-09-12T05:23:59;100822.31;;;22.10;72.58
75585;BME280;64162;53.508;10.476;2023-09-12T05:26:26;100812.97;;;22.27;71.79
75585;BME280;64162;53.508;10.476;2023-09-12T05:28:52;100820.97;;;22.20;71.71
75585;BME280;64162;53.508;10.476;2023-09-12T05:31:19;100826.84;;;22.65;69.94
75585;BME280;64162;53.508;10.476;2023-09-12T05:33:46;100827.28;;;22.68;69.97
75585;BME280;64162;53.508;10.476;2023-09-12T05:36:12;100824.22;;;23.13;68.64
75585;BME280;64162;53.508;10.476;2023-09-12T05:38:39;100820.28;;;23.15;68.41
75585;BME280;64162;53.508;10.476;2023-09-12T05:41:06;100817.59;;;22.74;69.96
75585;BME280;64162;53.508;10.476;2023-09-12T05:43:33;100814.66;;;22.69;70.10
75585;BME280;64162;53.508;10.476;2023-09-12T05:45:59;100805.00;;;23.22;68.11
75585;BME280;64162;53.508;10.476;2023-09-12T05:48:26;100792.69;;;22.87;69.61
75585;BME280;64162;53.508;10.476;2023-09-12T05:50:53;100767.06;;;22.50;68.16
75585;BME280;64162;53.508;10.476;2023-09-12T05:53:19;100751.47;;;22.73;64.69
75585;BME280;64162;53.508;10.476;2023-09-12T05:55:46;100741.72;;;22.24;71.64
75585;BME280;64162;53.508;10.476;2023-09-12T05:58:13;100750.34;;;22.20;70.54
75585;BME280;64162;53.508;10.476;2023-09-12T06:00:39;100767.31;;;22.96;67.14
75585;BME280;64162;53.508;10.476;2023-09-12T06:03:06;100766.03;;;22.85;69.80
75585;BME280;64162;53.508;10.476;2023-09-12T06:05:33;100759.78;;;23.46;66.30
75585;BME280;64162;53.508;10.476;2023-09-12T06:08:00;100751.72;;;23.52;66.42
75585;BME280;64162;53.508;10.476;2023-09-12T06:10:26;100744.28;;;22.11;71.84
75585;BME280;64162;53.508;10.476;2023-09-12T06:12:53;100748.44;;;22.42;65.14
75585;BME280;64162;53.508;10.476;2023-09-12T06:15:20;100759.19;;;22.83;68.24
75585;BME280;64162;53.508;10.476;2023-09-12T06:17:46;100765.06;;;23.06;66.72
75585;BME280;64162;53.508;10.476;2023-09-12T06:20:13;100775.66;;;23.21;67.67
75585;BME280;64162;53.508;10.476;2023-09-12T06:22:39;100794.31;;;23.35;66.67
75585;BME280;64162;53.508;10.476;2023-09-12T06:25:06;100809.41;;;22.54;70.55
75585;BME280;64162;53.508;10.476;2023-09-12T06:27:33;100811.44;;;21.96;73.09
75585;BME280;64162;53.508;10.476;2023-09-12T06:30:00;100804.69;;;22.56;70.56
75585;BME280;64162;53.508;10.476;2023-09-12T06:32:26;100811.00;;;22.14;72.39
75585;BME280;64162;53.508;10.476;2023-09-12T06:34:53;100806.72;;;22.82;69.21
75585;BME280;64162;53.508;10.476;2023-09-12T06:37:19;100816.19;;;22.44;71.49
75585;BME280;64162;53.508;10.476;2023-09-12T06:39:49;100809.50;;;23.02;68.88
75585;BME280;64162;53.508;10.476;2023-09-12T06:42:17;100809.13;;;22.77;69.43
75585;BME280;64162;53.508;10.476;2023-09-12T06:44:44;100808.09;;;23.06;69.22
75585;BME280;64162;53.508;10.476;2023-09-12T06:47:11;100813.44;;;22.99;69.64
75585;BME280;64162;53.508;10.476;2023-09-12T06:49:38;100801.44;;;23.02;67.82
75585;BME280;64162;53.508;10.476;2023-09-12T06:52:05;100803.19;;;23.29;68.20
75585;BME280;64162;53.508;10.476;2023-09-12T06:54:33;100811.59;;;23.67;66.37
75585;BME280;64162;53.508;10.476;2023-09-12T06:56:59;100810.91;;;22.91;69.82
75585;BME280;64162;53.508;10.476;2023-09-12T06:59:26;100822.06;;;22.60;71.63
75585;BME280;64162;53.508;10.476;2023-09-12T07:01:52;100843.09;;;22.50;72.87
75585;BME280;64162;53.508;10.476;2023-09-12T07:04:19;100844.63;;;22.66;71.80
75585;BME280;64162;53.508;10.476;2023-09-12T07:06:46;100853.69;;;22.65;72.23
75585;BME280;64162;53.508;10.476;2023-09-12T07:09:12;100850.66;;;23.02;71.24
75585;BME280;64162;53.508;10.476;2023-09-12T07:11:41;100855.16;;;22.67;72.40
75585;BME280;64162;53.508;10.476;2023-09-12T07:14:11;100850.22;;;22.71;72.61
75585;BME280;64162;53.508;10.476;2023-09-12T07:16:37;100852.81;;;22.51;72.71
75585;BME280;64162;53.508;10.476;2023-09-12T07:19:04;100843.72;;;22.80;72.15
75585;BME280;64162;53.508;10.476;2023-09-12T07:21:32;100841.78;;;23.09;71.27
75585;BME280;64162;53.508;10.476;2023-09-12T07:23:58;100836.31;;;23.43;69.41
75585;BME280;64162;53.508;10.476;2023-09-12T07:26:25;100837.84;;;23.72;67.67
75585;BME280;64162;53.508;10.476;2023-09-12T07:28:53;100829.47;;;23.34;69.50
75585;BME280;64162;53.508;10.476;2023-09-12T07:31:20;100833.22;;;23.39;67.01
75585;BME280;64162;53.508;10.476;2023-09-12T07:33:46;100840.81;;;23.29;69.84
75585;BME280;64162;53.508;10.476;2023-09-12T07:36:13;100840.09;;;23.01;70.05
75585;BME280;64162;53.508;10.476;2023-09-12T07:38:40;100838.88;;;23.03;71.05
75585;BME280;64162;53.508;10.476;2023-09-12T07:41:08;100846.97;;;23.17;70.51
75585;BME280;64162;53.508;10.476;2023-09-12T07:43:34;100844.69;;;23.14;70.60
75585;BME280;64162;53.508;10.476;2023-09-12T07:46:01;100839.50;;;23.60;68.82
75585;BME280;64162;53.508;10.476;2023-09-12T07:48:27;100839.97;;;24.03;66.63
75585;BME280;64162;53.508;10.476;2023-09-12T07:50:54;100834.56;;;23.77;67.61
75585;BME280;64162;53.508;10.476;2023-09-12T07:53:21;100833.72;;;23.56;68.94
75585;BME280;64162;53.508;10.476;2023-09-12T07:55:49;100830.38;;;23.54;68.62
75585;BME280;64162;53.508;10.476;2023-09-12T07:58:16;100823.97;;;23.68;67.93
75585;BME280;64162;53.508;10.476;2023-09-12T08:00:46;100826.50;;;23.90;67.77
75585;BME280;64162;53.508;10.476;2023-09-12T08:03:13;100819.03;;;24.45;65.60
75585;BME280;64162;53.508;10.476;2023-09-12T08:05:41;100819.66;;;24.47;63.26
75585;BME280;64162;53.508;10.476;2023-09-12T08:08:08;100822.16;;;24.42;65.64
75585;BME280;64162;53.508;10.476;2023-09-12T08:10:34;100825.22;;;24.78;64.69
75585;BME280;64162;53.508;10.476;2023-09-12T08:13:01;100837.91;;;24.25;66.73
75585;BME280;64162;53.508;10.476;2023-09-12T08:15:28;100844.69;;;23.61;68.49
75585;BME280;64162;53.508;10.476;2023-09-12T08:17:54;100833.97;;;23.94;68.24
75585;BME280;64162;53.508;10.476;2023-09-12T08:20:21;100834.97;;;23.87;67.36
75585;BME280;64162;53.508;10.476;2023-09-12T08:22:48;100844.09;;;23.92;68.93
75585;BME280;64162;53.508;10.476;2023-09-12T08:25:15;100853.38;;;23.77;68.93
75585;BME280;64162;53.508;10.476;2023-09-12T08:27:42;100861.91;;;23.93;67.60
75585;BME280;64162;53.508;10.476;2023-09-12T08:30:11;100858.91;;;23.49;69.80
75585;BME280;64162;53.508;10.476;2023-09-12T08:32:39;100857.53;;;23.79;68.93
75585;BME280;64162;53.508;10.476;2023-09-12T08:35:11;100861.31;;;24.24;67.24
75585;BME280;64162;53.508;10.476;2023-09-12T08:37:42;100863.19;;;24.17;67.73
75585;BME280;64162;53.508;10.476;2023-09-12T08:40:10;100864.84;;;24.25;67.55
75585;BME280;64162;53.508;10.476;2023-09-12T08:42:42;100855.94;;;24.24;66.48
75585;BME280;64162;53.508;10.476;2023-09-12T08:45:13;100857.59;;;24.45;66.37
75585;BME280;64162;53.508;10.476;2023-09-12T08:47:43;100862.34;;;24.36;67.34
75585;BME280;64162;53.508;10.476;2023-09-12T08:50:14;100876.25;;;24.27;66.22
75585;BME280;64162;53.508;10.476;2023-09-12T08:52:42;100869.81;;;24.28;67.89
75585;BME280;64162;53.508;10.476;2023-09-12T08:55:14;100871.47;;;24.29;67.56
75585;BME280;64162;53.508;10.476;2023-09-12T08:57:42;100870.44;;;24.43;67.28
75585;BME280;64162;53.508;10.476;2023-09-12T09:00:10;100886.13;;;23.93;68.18
75585;BME280;64162;53.508;10.476;2023-09-12T09:02:40;100878.50;;;24.23;68.00
75585;BME280;64162;53.508;10.476;2023-09-12T09:05:09;100879.31;;;24.04;68.97
75585;BME280;64162;53.508;10.476;2023-09-12T09:07:38;100883.38;;;23.60;70.23
75585;BME280;64162;53.508;10.476;2023-09-12T09:10:06;100874.91;;;23.63;69.69
75585;BME280;64162;53.508;10.476;2023-09-12T09:12:34;100877.25;;;24.19;67.35
75585;BME280;64162;53.508;10.476;2023-09-12T09:15:22;100882.81;;;23.98;68.38
75585;BME280;64162;53.508;10.476;2023-09-12T09:17:49;100892.41;;;24.27;67.59
75585;BME280;64162;53.508;10.476;2023-09-12T09:20:27;100891.44;;;23.60;68.69
75585;BME280;64162;53.508;10.476;2023-09-12T09:23:03;100887.00;;;24.40;67.58
75585;BME280;64162;53.508;10.476;2023-09-12T09:25:36;100883.47;;;24.07;68.04
75585;BME280;64162;53.508;10.476;2023-09-12T09:28:16;100870.56;;;23.76;69.05
75585;BME280;64162;53.508;10.476;2023-09-12T09:30:45;100881.63;;;24.40;67.23
75585;BME280;64162;53.508;10.476;2023-09-12T09:33:15;100887.41;;;24.70;66.35
75585;BME280;64162;53.508;10.476;2023-09-12T09:35:42;100886.72;;;24.94;64.80
75585;BME280;64162;53.508;10.476;2023-09-12T09:38:09;100887.78;;;25.00;66.31
75585;BME280;64162;53.508;10.476;2023-09-12T09:40:36;100880.78;;;24.66;66.19
75585;BME280;64162;53.508;10.476;2023-09-12T09:43:03;100885.91;;;25.07;65.36
75585;BME280;64162;53.508;10.476;2023-09-12T09:45:30;100891.06;;;24.95;65.72
75585;BME280;64162;53.508;10.476;2023-09-12T09:48:04;100887.53;;;25.15;65.53
75585;BME280;64162;53.508;10.476;2023-09-12T09:50:35;100880.22;;;25.28;64.47
75585;BME280;64162;53.508;10.476;2023-09-12T09:53:04;100883.19;;;25.65;64.14
75585;BME280;64162;53.508;10.476;2023-09-12T09:55:33;100883.13;;;25.27;63.54
75585;BME280;64162;53.508;10.476;2023-09-12T09:57:59;100880.50;;;24.94;65.16
75585;BME280;64162;53.508;10.476;2023-09-12T10:00:28;100897.13;;;24.97;66.35
75585;BME280;64162;53.508;10.476;2023-09-12T10:02:55;100905.66;;;24.55;66.29
75585;BME280;64162;53.508;10.476;2023-09-12T10:05:22;100897.25;;;25.22;65.13
75585;BME280;64162;53.508;10.476;2023-09-12T10:07:50;100907.50;;;24.81;65.68
75585;BME280;64162;53.508;10.476;2023-09-12T10:10:17;100916.44;;;24.81;66.29
75585;BME280;64162;53.508;10.476;2023-09-12T10:12:58;100908.09;;;25.09;65.21
75585;BME280;64162;53.508;10.476;2023-09-12T10:15:28;100905.81;;;24.93;65.79
75585;BME280;64162;53.508;10.476;2023-09-12T10:17:57;100901.63;;;25.17;64.99
75585;BME280;64162;53.508;10.476;2023-09-12T10:20:58;100891.25;;;25.20;64.71
75585;BME280;64162;53.508;10.476;2023-09-12T10:23:37;100893.28;;;25.31;64.53
75585;BME280;64162;53.508;10.476;2023-09-12T10:26:11;100898.97;;;24.90;66.46
75585;BME280;64162;53.508;10.476;2023-09-12T10:28:41;100894.38;;;25.17;65.73
75585;BME280;64162;53.508;10.476;2023-09-12T10:31:12;100893.78;;;24.95;65.87
75585;BME280;64162;53.508;10.476;2023-09-12T10:33:39;100885.56;;;24.57;67.03
75585;BME280;64162;53.508;10.476;2023-09-12T10:36:08;100893.56;;;24.90;66.79
75585;BME280;64162;53.508;10.476;2023-09-12T10:38:41;100895.19;;;25.18;65.05
75585;BME280;64162;53.508;10.476;2023-09-12T10:41:10;100885.53;;;24.77;65.96
75585;BME280;64162;53.508;10.476;2023-09-12T10:43:38;100885.13;;;24.67;66.12
75585;BME280;64162;53.508;10.476;2023-09-12T10:46:06;100879.41;;;25.28;64.85
75585;BME280;64162;53.508;10.476;2023-09-12T10:48:37;100874.78;;;25.80;62.74
75585;BME280;64162;53.508;10.476;2023-09-12T10:51:07;100871.19;;;24.90;65.19
75585;BME280;64162;53.508;10.476;2023-09-12T10:53:34;100877.41;;;25.04;64.85
75585;BME280;64162;53.508;10.476;2023-09-12T11:01:31;100883.06;;;24.69;65.68
75585;BME280;64162;53.508;10.476;2023-09-12T11:03:58;100888.25;;;24.51;67.21
75585;BME280;64162;53.508;10.476;2023-09-12T11:06:29;100895.94;;;24.54;67.23
75585;BME280;64162;53.508;10.476;2023-09-12T11:11:54;100903.09;;;24.93;65.38
75585;BME280;64162;53.508;10.476;2023-09-12T11:14:21;100909.19;;;24.49;66.98
75585;BME280;64162;53.508;10.476;2023-09-12T11:19:46;100906.06;;;24.45;67.47
75585;BME280;64162;53.508;10.476;2023-09-12T11:22:29;100910.00;;;24.29;67.51
75585;BME280;64162;53.508;10.476;2023-09-12T11:25:01;100906.06;;;24.58;66.75
75585;BME280;64162;53.508;10.476;2023-09-12T11:30:23;100900.84;;;25.54;64.10
75585;BME280;64162;53.508;10.476;2023-09-12T11:32:51;100897.25;;;25.29;65.16
75585;BME280;64162;53.508;10.476;2023-09-12T11:35:25;100903.78;;;24.82;66.54
75585;BME280;64162;53.508;10.476;2023-09-12T11:37:56;100898.22;;;25.41;64.39
75585;BME280;64162;53.508;10.476;2023-09-12T11:40:41;100897.44;;;25.27;64.79
75585;BME280;64162;53.508;10.476;2023-09-12T11:43:19;100907.94;;;24.78;66.94
75585;BME280;64162;53.508;10.476;2023-09-12T11:45:46;100902.50;;;25.04;66.26
75585;BME280;64162;53.508;10.476;2023-09-12T11:48:13;100900.34;;;25.32;64.75
75585;BME280;64162;53.508;10.476;2023-09-12T11:50:39;100906.38;;;25.28;65.06
75585;BME280;64162;53.508;10.476;2023-09-12T11:53:09;100904.09;;;25.25;65.81
75585;BME280;64162;53.508;10.476;2023-09-12T11:55:44;100911.59;;;25.10;65.63
75585;BME280;64162;53.508;10.476;2023-09-12T11:58:13;100912.72;;;24.69;67.41
75585;BME280;64162;53.508;10.476;2023-09-12T12:00:45;100907.91;;;24.97;66.35
75585;BME280;64162;53.508;10.476;2023-09-12T12:03:14;100898.78;;;25.50;64.62
75585;BME280;64162;53.508;10.476;2023-09-12T12:05:41;100902.50;;;24.97;66.65
75585;BME280;64162;53.508;10.476;2023-09-12T12:08:08;100897.34;;;24.83;66.39
75585;BME280;64162;53.508;10.476;2023-09-12T12:10:42;100902.13;;;24.74;67.34
75585;BME280;64162;53.508;10.476;2023-09-12T12:13:16;100906.03;;;24.85;66.47
75585;BME280;64162;53.508;10.476;2023-09-12T12:15:44;100905.41;;;25.02;65.98
75585;BME280;64162;53.508;10.476;2023-09-12T12:18:11;100888.66;;;24.74;66.43
75585;BME280;64162;53.508;10.476;2023-09-12T12:20:38;100886.31;;;24.84;66.58
75585;BME280;64162;53.508;10.476;2023-09-12T12:23:05;100891.09;;;25.02;65.51
75585;BME280;64162;53.508;10.476;2023-09-12T12:25:32;100899.59;;;24.99;66.06
75585;BME280;64162;53.508;10.476;2023-09-12T12:28:01;100883.00;;;25.02;65.46
75585;BME280;64162;53.508;10.476;2023-09-12T12:30:33;100878.09;;;25.82;63.01
75585;BME280;64162;53.508;10.476;2023-09-12T12:33:01;100875.50;;;25.17;64.91
75585;BME280;64162;53.508;10.476;2023-09-12T12:35:32;100856.53;;;24.59;67.50
75585;BME280;64162;53.508;10.476;2023-09-12T12:37:59;100842.47;;;24.44;67.66
75585;BME280;64162;53.508;10.476;2023-09-12T12:40:31;100835.09;;;24.91;65.82
75585;BME280;64162;53.508;10.476;2023-09-12T12:43:04;100821.72;;;25.60;63.67
75585;BME280;64162;53.508;10.476;2023-09-12T12:45:30;100828.13;;;25.73;62.98
75585;BME280;64162;53.508;10.476;2023-09-12T12:47:59;100826.16;;;25.48;63.73
75585;BME280;64162;53.508;10.476;2023-09-12T12:50:26;100833.81;;;25.13;65.25
75585;BME280;64162;53.508;10.476;2023-09-12T12:52:53;100831.56;;;24.90;65.63
75585;BME280;64162;53.508;10.476;2023-09-12T12:55:21;100820.69;;;25.23;65.52
75585;BME280;64162;53.508;10.476;2023-09-12T12:57:48;100807.09;;;25.43;64.22
75585;BME280;64162;53.508;10.476;2023-09-12T13:00:16;100808.59;;;25.71;62.92
75585;BME280;64162;53.508;10.476;2023-09-12T13:02:43;100809.69;;;25.56;63.58
75585;BME280;64162;53.508;10.476;2023-09-12T13:05:29;100809.06;;;25.29;63.67
75585;BME280;64162;53.508;10.476;2023-09-12T13:07:59;100817.66;;;25.45;63.42
75585;BME280;64162;53.508;10.476;2023-09-12T13:10:25;100821.31;;;25.57;63.14